createdAt,value
2022-08-17T00:00:12.813Z,7.95
2022-08-17T00:03:04.513Z,6.13
2022-08-17T00:05:36.052Z,8.65
2022-08-17T00:08:03.850Z,4.82
2022-08-17T00:10:32.414Z,5.72
2022-08-17T00:13:00.712Z,4.10
2022-08-17T00:15:28.121Z,4.03
2022-08-17T00:17:55.404Z,3.90
2022-08-17T00:20:23.451Z,3.97
2022-08-17T00:23:13.060Z,6.70
2022-08-17T00:25:44.828Z,5.57
2022-08-17T00:28:13.075Z,4.38
2022-08-17T00:30:50.925Z,3.45
2022-08-17T00:33:27.497Z,6.10
2022-08-17T00:35:56.206Z,5.57
2022-08-17T00:38:24.549Z,4.80
2022-08-17T00:40:55.820Z,4.82
2022-08-17T00:45:57.312Z,8.65
2022-08-17T00:48:29.846Z,6.03
2022-08-17T00:51:07.000Z,6.65
2022-08-17T00:53:37.314Z,9.15
2022-08-17T00:56:08.411Z,7.28
2022-08-17T00:58:36.802Z,5.03
2022-08-17T01:01:06.869Z,5.95
2022-08-17T01:03:36.956Z,6.03
2022-08-17T01:06:06.741Z,11.07
2022-08-17T01:08:35.843Z,8.75
2022-08-17T01:11:04.225Z,7.35
2022-08-17T01:13:41.854Z,7.72
2022-08-17T01:16:28.718Z,8.93
2022-08-17T01:19:00.160Z,4.88
2022-08-17T01:21:49.090Z,9.98
2022-08-17T01:24:16.979Z,11.07
2022-08-17T01:26:45.799Z,9.48
2022-08-17T01:29:13.752Z,6.60
2022-08-17T01:31:51.266Z,8.82
2022-08-17T01:34:19.253Z,5.30
2022-08-17T01:36:49.850Z,7.20
2022-08-17T01:39:49.292Z,8.35
2022-08-17T01:42:23.571Z,8.65
2022-08-17T01:44:59.133Z,8.18
2022-08-17T01:47:26.574Z,9.07
2022-08-17T01:49:57.092Z,6.72
2022-08-17T01:52:24.510Z,7.72
2022-08-17T01:54:52.600Z,7.75
2022-08-17T01:57:20.127Z,6.97
2022-08-17T01:59:47.955Z,5.00
2022-08-17T02:02:30.644Z,5.40
2022-08-17T02:04:59.263Z,7.30
2022-08-17T02:07:27.019Z,5.88
2022-08-17T02:09:54.910Z,8.20
2022-08-17T02:12:38.397Z,8.77
2022-08-17T02:17:35.327Z,8.05
2022-08-17T02:20:03.103Z,9.20
2022-08-17T02:22:31.117Z,11.32
2022-08-17T02:25:02.163Z,5.63
2022-08-17T02:27:30.679Z,8.73
2022-08-17T02:29:58.238Z,8.55
2022-08-17T02:32:28.143Z,7.80
2022-08-17T02:35:00.342Z,7.85
2022-08-17T02:37:29.905Z,8.70
2022-08-17T02:39:58.683Z,7.40
2022-08-17T02:42:35.917Z,9.13
2022-08-17T02:45:06.405Z,5.57
2022-08-17T02:47:34.811Z,8.93
2022-08-17T02:50:02.474Z,7.63
2022-08-17T02:52:43.508Z,8.30
2022-08-17T02:55:21.608Z,6.13
2022-08-17T02:57:49.910Z,6.38
2022-08-17T03:00:24.242Z,12.75
2022-08-17T03:02:52.431Z,6.50
2022-08-17T03:05:22.415Z,7.40
2022-08-17T03:07:49.764Z,7.03
2022-08-17T03:10:17.769Z,7.07
2022-08-17T03:12:47.663Z,8.02
2022-08-17T03:15:24.159Z,6.75
2022-08-17T03:17:52.458Z,7.70
2022-08-17T03:20:21.165Z,9.25
2022-08-17T03:22:53.598Z,8.73
2022-08-17T03:25:28.141Z,7.22
2022-08-17T03:27:56.903Z,7.88
2022-08-17T03:30:26.248Z,9.65
2022-08-17T03:32:56.192Z,8.98
2022-08-17T03:35:27.058Z,7.28
2022-08-17T03:38:01.023Z,8.57
2022-08-17T03:40:55.332Z,6.85
2022-08-17T03:43:18.429Z,13.63
2022-08-17T03:46:04.164Z,6.80
2022-08-17T03:48:51.820Z,7.63
2022-08-17T03:51:43.042Z,8.63
2022-08-17T03:54:30.163Z,11.18
2022-08-17T03:57:03.243Z,8.15
2022-08-17T03:59:32.007Z,7.82
2022-08-17T04:02:13.173Z,6.45
2022-08-17T04:04:40.779Z,6.00
2022-08-17T04:07:08.485Z,7.78
2022-08-17T04:09:36.704Z,6.30
2022-08-17T04:12:05.300Z,10.48
2022-08-17T04:14:36.506Z,5.35
2022-08-17T04:17:21.527Z,8.30
2022-08-17T04:19:48.884Z,6.45
2022-08-17T04:22:32.446Z,5.28
2022-08-17T04:25:06.843Z,10.77
2022-08-17T04:27:34.408Z,6.28
2022-08-17T04:30:02.294Z,7.30
2022-08-17T04:33:05.090Z,6.63
2022-08-17T04:35:23.505Z,13.57
2022-08-17T04:37:50.974Z,5.03
2022-08-17T04:40:39.306Z,7.15
2022-08-17T04:43:13.055Z,7.22
2022-08-17T04:45:55.013Z,5.88
2022-08-17T04:48:35.217Z,5.05
2022-08-17T04:51:16.484Z,3.83
2022-08-17T04:53:49.051Z,7.07
2022-08-17T04:56:23.250Z,8.98
2022-08-17T04:58:53.341Z,7.97
2022-08-17T05:01:23.977Z,9.60
2022-08-17T05:03:53.792Z,6.97
2022-08-17T05:06:21.742Z,5.60
2022-08-17T05:08:49.660Z,5.53
2022-08-17T05:11:17.512Z,7.30
2022-08-17T05:13:44.909Z,10.73
2022-08-17T05:16:12.307Z,8.63
2022-08-17T05:18:39.689Z,7.85
2022-08-17T05:21:07.616Z,8.38
2022-08-17T05:23:41.769Z,10.80
2022-08-17T05:26:26.350Z,10.85
2022-08-17T05:29:00.456Z,11.50
2022-08-17T05:31:31.009Z,16.73
2022-08-17T05:33:58.842Z,8.43
2022-08-17T05:36:43.247Z,8.65
2022-08-17T05:39:15.983Z,10.05
2022-08-17T05:41:45.291Z,9.45
2022-08-17T05:44:12.723Z,8.30
2022-08-17T05:46:42.736Z,9.88
2022-08-17T05:49:11.247Z,9.82
2022-08-17T05:52:20.386Z,11.27
2022-08-17T05:55:07.324Z,8.73
2022-08-17T05:57:53.017Z,8.13
2022-08-17T06:00:30.743Z,10.85
2022-08-17T06:03:20.142Z,8.63
2022-08-17T06:06:15.226Z,10.60
2022-08-17T06:09:05.335Z,11.00
2022-08-17T06:11:47.862Z,10.85
2022-08-17T06:14:54.956Z,9.98
2022-08-17T06:17:25.157Z,10.25
2022-08-17T06:20:00.325Z,9.10
2022-08-17T06:22:33.456Z,10.10
2022-08-17T06:25:10.166Z,9.02
2022-08-17T06:27:45.108Z,8.75
2022-08-17T06:30:21.368Z,11.45
2022-08-17T06:32:50.325Z,16.38
2022-08-17T06:35:32.025Z,16.50
2022-08-17T06:38:41.326Z,15.10
2022-08-17T06:41:30.338Z,20.33
2022-08-17T06:44:43.133Z,19.13
2022-08-17T06:47:12.595Z,27.33
2022-08-17T06:49:55.211Z,30.15
2022-08-17T06:52:45.826Z,36.30
2022-08-17T06:55:26.358Z,31.60
2022-08-17T06:57:59.186Z,41.00
2022-08-17T07:00:35.887Z,36.80
2022-08-17T07:03:26.402Z,41.50
2022-08-17T07:08:53.125Z,39.95
2022-08-17T07:11:27.991Z,40.47
2022-08-17T07:13:55.430Z,29.05
2022-08-17T07:16:22.806Z,36.83
2022-08-17T07:18:53.383Z,28.02
2022-08-17T07:21:42.440Z,27.30
2022-08-17T07:24:31.347Z,30.77
2022-08-17T07:27:16.656Z,31.88
2022-08-17T07:29:50.764Z,27.98
2022-08-17T07:32:23.410Z,31.10
2022-08-17T07:35:10.689Z,32.58
2022-08-17T07:37:46.752Z,31.13
2022-08-17T07:40:22.360Z,32.60
2022-08-17T07:43:15.587Z,28.58
2022-08-17T07:46:16.420Z,25.77
2022-08-17T07:48:49.715Z,31.10
2022-08-17T07:51:29.592Z,22.55
2022-08-17T07:54:13.588Z,31.33
2022-08-17T07:57:00.812Z,27.33
2022-08-17T07:59:34.259Z,37.78
2022-08-17T08:02:16.270Z,30.90
2022-08-17T08:05:01.190Z,30.08
2022-08-17T08:07:36.046Z,33.88
2022-08-17T08:10:09.599Z,38.63
2022-08-17T08:12:53.889Z,44.90
2022-08-17T08:15:34.321Z,48.92
2022-08-17T08:18:05.308Z,36.72
2022-08-17T08:20:53.206Z,37.72
2022-08-17T08:23:48.191Z,44.33
2022-08-17T08:26:30.489Z,39.73
2022-08-17T08:29:22.629Z,41.33
2022-08-17T08:32:01.726Z,51.97
2022-08-17T08:35:01.377Z,46.10
2022-08-17T08:37:52.685Z,60.72
2022-08-17T08:40:54.324Z,38.70
2022-08-17T08:43:53.020Z,33.03
2022-08-17T08:46:53.955Z,32.97
2022-08-17T08:50:01.390Z,32.42
2022-08-17T08:52:40.664Z,30.20
2022-08-17T08:55:35.570Z,38.45
2022-08-17T08:58:31.854Z,33.38
2022-08-17T09:01:00.700Z,39.33
2022-08-17T09:03:52.664Z,34.65
2022-08-17T09:06:39.759Z,29.33
2022-08-17T09:09:17.033Z,24.98
2022-08-17T09:12:01.163Z,33.08
2022-08-17T09:14:43.160Z,22.08
2022-08-17T09:17:35.749Z,30.85
2022-08-17T09:20:27.386Z,26.88
2022-08-17T09:23:08.077Z,21.33
2022-08-17T09:25:55.409Z,22.45
2022-08-17T09:28:34.136Z,32.15
2022-08-17T09:31:09.398Z,27.92
2022-08-17T09:33:44.088Z,23.08
2022-08-17T09:36:33.602Z,22.33
2022-08-17T09:39:35.239Z,32.58
2022-08-17T09:42:17.178Z,25.90
2022-08-17T09:45:03.249Z,24.17
2022-08-17T09:47:45.611Z,24.02
2022-08-17T09:50:57.377Z,28.13
2022-08-17T09:53:12.497Z,25.48
2022-08-17T09:55:50.176Z,23.80
2022-08-17T09:58:43.969Z,18.92
2022-08-17T10:01:25.913Z,25.17
2022-08-17T10:04:02.487Z,24.48
2022-08-17T10:06:39.462Z,21.35
2022-08-17T10:09:19.337Z,16.88
2022-08-17T10:12:30.184Z,19.48
2022-08-17T10:15:22.664Z,16.58
2022-08-17T10:18:18.557Z,12.10
2022-08-17T10:21:19.656Z,16.58
2022-08-17T10:24:11.282Z,19.13
2022-08-17T10:26:55.968Z,18.30
2022-08-17T10:29:28.867Z,18.35
2022-08-17T10:32:05.432Z,13.82
2022-08-17T10:34:58.586Z,14.68
2022-08-17T10:37:37.235Z,16.83
2022-08-17T10:40:35.715Z,15.50
2022-08-17T10:43:23.094Z,19.52
2022-08-17T10:46:26.482Z,11.57
2022-08-17T10:49:29.455Z,22.83
2022-08-17T10:52:00.041Z,15.75
2022-08-17T10:54:50.890Z,13.60
2022-08-17T10:57:40.182Z,14.38
2022-08-17T11:00:17.347Z,14.13
2022-08-17T11:02:50.155Z,18.50
2022-08-17T11:05:55.040Z,19.55
2022-08-17T11:09:00.874Z,21.50
2022-08-17T11:12:06.952Z,16.10
2022-08-17T11:15:19.807Z,15.93
2022-08-17T11:17:55.381Z,13.63
2022-08-17T11:20:44.485Z,12.75
2022-08-17T11:23:30.427Z,11.05
2022-08-17T11:26:04.163Z,10.70
2022-08-17T11:28:52.815Z,10.80
2022-08-17T11:31:39.117Z,13.95
2022-08-17T11:34:28.491Z,11.35
2022-08-17T11:37:29.747Z,14.02
2022-08-17T11:40:15.427Z,12.73
2022-08-17T11:42:49.715Z,11.05
2022-08-17T11:45:45.455Z,14.63
2022-08-17T11:49:06.116Z,14.45
2022-08-17T11:52:12.235Z,17.30
2022-08-17T11:54:48.276Z,11.73
2022-08-17T11:57:29.478Z,11.00
2022-08-17T12:00:13.055Z,10.60
2022-08-17T12:02:49.127Z,11.00
2022-08-17T12:05:25.439Z,6.97
2022-08-17T12:07:55.864Z,11.50
2022-08-17T12:10:32.437Z,9.63
2022-08-17T12:13:06.307Z,10.30
2022-08-17T12:15:42.624Z,8.40
2022-08-17T12:18:29.154Z,5.70
2022-08-17T12:21:21.635Z,14.90
2022-08-17T12:23:56.211Z,10.10
2022-08-17T12:26:33.461Z,6.63
2022-08-17T12:29:35.727Z,8.60
2022-08-17T12:32:07.243Z,7.23
2022-08-17T12:34:40.811Z,8.95
2022-08-17T12:37:20.698Z,5.67
2022-08-17T12:39:58.751Z,10.90
2022-08-17T12:42:34.845Z,6.65
2022-08-17T12:45:02.461Z,7.47
2022-08-17T12:47:31.937Z,7.90
2022-08-17T12:50:29.239Z,7.45
2022-08-17T12:53:01.969Z,11.25
2022-08-17T12:55:36.081Z,8.13
2022-08-17T12:58:04.255Z,7.47
2022-08-17T13:00:33.341Z,5.78
2022-08-17T13:03:02.805Z,5.97
2022-08-17T13:05:39.582Z,8.30
2022-08-17T13:08:20.075Z,6.95
2022-08-17T13:11:03.779Z,9.50
2022-08-17T13:13:34.749Z,10.77
2022-08-17T13:16:24.875Z,12.00
2022-08-17T13:19:15.550Z,10.23
2022-08-17T13:21:50.025Z,11.52
2022-08-17T13:24:30.947Z,7.57
2022-08-17T13:27:12.065Z,4.95
2022-08-17T13:29:51.159Z,7.17
2022-08-17T13:32:31.182Z,5.03
2022-08-17T13:35:13.811Z,8.23
2022-08-17T13:38:07.827Z,9.68
2022-08-17T13:40:53.339Z,11.77
2022-08-17T13:43:39.514Z,5.78
2022-08-17T13:46:22.527Z,6.13
2022-08-17T13:49:02.929Z,7.78
2022-08-17T13:51:41.667Z,5.68
2022-08-17T13:54:22.405Z,7.78
2022-08-17T13:57:00.407Z,6.07
2022-08-17T13:59:54.546Z,6.63
2022-08-17T14:02:26.009Z,8.98
2022-08-17T14:04:56.738Z,7.72
2022-08-17T14:07:29.953Z,6.40
2022-08-17T14:10:04.919Z,8.35
2022-08-17T14:12:34.849Z,4.72
2022-08-17T14:15:02.875Z,5.63
2022-08-17T14:17:35.066Z,7.05
2022-08-17T14:20:10.537Z,8.20
2022-08-17T14:22:43.405Z,13.90
2022-08-17T14:25:13.586Z,11.18
2022-08-17T14:27:51.819Z,9.85
2022-08-17T14:30:26.716Z,6.97
2022-08-17T14:32:58.289Z,7.90
2022-08-17T14:35:28.282Z,7.43
2022-08-17T14:37:56.510Z,10.98
2022-08-17T14:40:25.373Z,7.07
2022-08-17T14:42:55.351Z,6.88
2022-08-17T14:45:32.227Z,9.30
2022-08-17T14:48:07.790Z,8.75
2022-08-17T14:50:39.110Z,6.28
2022-08-17T14:53:09.436Z,8.23
2022-08-17T14:55:40.040Z,10.85
2022-08-17T14:58:09.191Z,7.25
2022-08-17T15:00:37.395Z,6.63
2022-08-17T15:03:05.578Z,6.63
2022-08-17T15:05:39.668Z,7.25
2022-08-17T15:08:07.695Z,4.57
2022-08-17T15:10:35.817Z,5.47
2022-08-17T15:13:03.843Z,8.07
2022-08-17T15:15:31.735Z,2.75
2022-08-17T15:18:00.082Z,8.50
2022-08-17T15:20:30.273Z,5.10
2022-08-17T15:22:59.484Z,5.68
2022-08-17T15:25:29.066Z,9.30
2022-08-17T15:27:57.190Z,5.25
2022-08-17T15:30:26.187Z,6.53
2022-08-17T15:32:55.730Z,7.30
2022-08-17T15:35:28.213Z,6.28
2022-08-17T15:37:58.259Z,12.38
2022-08-17T15:40:25.902Z,9.57
2022-08-17T15:42:53.587Z,11.60
2022-08-17T15:45:24.998Z,14.45
2022-08-17T15:47:53.434Z,11.20
2022-08-17T15:50:21.314Z,9.88
2022-08-17T15:52:58.142Z,6.93
2022-08-17T15:55:27.499Z,6.10
2022-08-17T15:57:55.468Z,6.57
2022-08-17T16:00:28.330Z,6.32
2022-08-17T16:03:45.876Z,5.05
2022-08-17T16:05:45.329Z,7.90
2022-08-17T16:08:20.017Z,4.20
2022-08-17T16:10:50.397Z,3.80
2022-08-17T16:13:19.464Z,5.68
2022-08-17T16:15:57.019Z,5.65
2022-08-17T16:18:32.069Z,5.35
2022-08-17T16:21:21.823Z,4.88
2022-08-17T16:23:51.616Z,2.50
2022-08-17T16:26:20.000Z,2.38
2022-08-17T16:28:47.798Z,1.27
2022-08-17T16:31:17.325Z,5.80
2022-08-17T16:34:16.232Z,2.60
2022-08-17T16:36:33.149Z,1.90
2022-08-17T16:39:01.612Z,1.23
2022-08-17T16:41:44.592Z,3.33
2022-08-17T16:44:15.594Z,3.63
2022-08-17T16:46:45.433Z,1.63
2022-08-17T16:49:31.559Z,3.15
2022-08-17T16:52:03.463Z,2.13
2022-08-17T16:54:30.998Z,3.85
2022-08-17T16:56:58.606Z,1.08
2022-08-17T16:59:31.337Z,3.05
2022-08-17T17:02:11.419Z,2.55
2022-08-17T17:05:23.618Z,1.38
2022-08-17T17:08:16.143Z,1.95
2022-08-17T17:10:48.286Z,3.35
2022-08-17T17:13:30.625Z,5.97
2022-08-17T17:16:19.547Z,2.53
2022-08-17T17:19:01.876Z,1.60
2022-08-17T17:22:00.189Z,4.22
2022-08-17T17:24:49.610Z,3.42
2022-08-17T17:27:40.337Z,3.75
2022-08-17T17:30:24.437Z,5.38
2022-08-17T17:32:59.238Z,2.07
2022-08-17T17:35:47.187Z,7.60
2022-08-17T17:38:34.592Z,3.85
2022-08-17T17:41:07.665Z,7.80
2022-08-17T17:43:39.709Z,4.10
2022-08-17T17:46:26.565Z,4.07
2022-08-17T17:48:56.408Z,5.80
2022-08-17T17:52:02.839Z,4.75
2022-08-17T17:55:01.282Z,7.10
2022-08-17T17:57:49.678Z,3.33
2022-08-17T18:00:45.402Z,2.95
2022-08-17T18:03:56.061Z,5.35
2022-08-17T18:06:51.931Z,8.27
2022-08-17T18:09:33.904Z,3.83
2022-08-17T18:12:12.071Z,6.90
2022-08-17T18:15:20.077Z,5.15
2022-08-17T18:18:15.732Z,6.05
2022-08-17T18:20:54.053Z,3.00
2022-08-17T18:23:28.587Z,6.15
2022-08-17T18:25:58.828Z,3.22
2022-08-17T18:28:37.005Z,9.27
2022-08-17T18:31:13.056Z,8.02
2022-08-17T18:33:44.687Z,5.28
2022-08-17T18:36:13.402Z,6.85
2022-08-17T18:38:43.484Z,4.38
2022-08-17T18:41:27.387Z,7.43
2022-08-17T18:44:16.321Z,4.47
2022-08-17T18:46:44.262Z,6.40
2022-08-17T18:49:27.909Z,10.40
2022-08-17T18:52:21.695Z,9.18
2022-08-17T18:55:13.165Z,5.82
2022-08-17T18:57:49.835Z,7.00
2022-08-17T19:00:19.251Z,5.80
2022-08-17T19:02:56.538Z,6.45
2022-08-17T19:05:42.489Z,8.48
2022-08-17T19:08:19.232Z,5.68
2022-08-17T19:10:51.782Z,7.88
2022-08-17T19:13:40.239Z,4.07
2022-08-17T19:16:15.705Z,4.32
2022-08-17T19:18:52.898Z,4.28
2022-08-17T19:21:39.443Z,4.78
2022-08-17T19:24:30.157Z,4.13
2022-08-17T19:27:12.445Z,4.90
2022-08-17T19:29:47.491Z,4.45
2022-08-17T19:32:18.588Z,5.53
2022-08-17T19:34:46.721Z,4.20
2022-08-17T19:37:32.654Z,5.63
2022-08-17T19:40:51.805Z,4.97
2022-08-17T19:43:27.446Z,5.28
2022-08-17T19:46:06.056Z,5.68
2022-08-17T19:49:03.541Z,7.82
2022-08-17T19:51:36.314Z,6.85
2022-08-17T19:54:16.496Z,6.35
2022-08-17T19:57:12.497Z,5.82
2022-08-17T19:59:57.844Z,4.82
2022-08-17T20:02:51.356Z,7.30
2022-08-17T20:06:01.414Z,7.57
2022-08-17T20:08:40.021Z,8.48
2022-08-17T20:11:21.471Z,8.02
2022-08-17T20:14:01.252Z,7.63
2022-08-17T20:16:29.000Z,6.55
2022-08-17T20:19:01.644Z,5.10
2022-08-17T20:21:54.218Z,4.55
2022-08-17T20:24:36.838Z,6.90
2022-08-17T20:27:19.119Z,6.03
2022-08-17T20:30:06.562Z,6.22
2022-08-17T20:32:35.950Z,7.03
2022-08-17T20:35:10.547Z,6.82
2022-08-17T20:37:44.471Z,4.47
2022-08-17T20:40:21.021Z,4.07
2022-08-17T20:42:48.961Z,6.57
2022-08-17T20:45:23.979Z,8.60
2022-08-17T20:48:20.072Z,5.72
2022-08-17T20:50:51.641Z,4.32
2022-08-17T20:56:50.045Z,4.13
2022-08-17T21:02:17.448Z,5.53
2022-08-17T21:04:55.236Z,6.10
2022-08-17T21:07:29.382Z,5.18
2022-08-17T21:10:24.069Z,7.45
2022-08-17T21:13:13.782Z,5.07
2022-08-17T21:16:01.208Z,5.75
2022-08-17T21:18:45.914Z,6.95
2022-08-17T21:21:40.466Z,5.03
2022-08-17T21:24:32.633Z,7.73
2022-08-17T21:27:18.131Z,6.32
2022-08-17T21:30:21.107Z,8.18
2022-08-17T21:33:18.955Z,3.20
2022-08-17T21:36:16.394Z,6.97
2022-08-17T21:38:57.450Z,4.25
2022-08-17T21:42:01.146Z,4.88
2022-08-17T21:44:40.123Z,8.65
2022-08-17T21:47:27.817Z,5.57
2022-08-17T21:49:56.799Z,7.10
2022-08-17T21:52:27.885Z,8.77
2022-08-17T21:54:58.672Z,6.13
2022-08-17T21:57:29.204Z,5.40
2022-08-17T22:00:00.303Z,7.15
2022-08-17T22:02:38.251Z,2.85
2022-08-17T22:05:13.380Z,8.55
2022-08-17T22:07:50.752Z,6.78
2022-08-17T22:10:41.191Z,4.93
2022-08-17T22:13:18.372Z,9.57
2022-08-17T22:15:51.419Z,6.18
2022-08-17T22:18:27.090Z,8.82
2022-08-17T22:20:58.072Z,4.95
2022-08-17T22:23:51.722Z,6.13
2022-08-17T22:26:23.121Z,7.93
2022-08-17T22:28:56.786Z,7.90
2022-08-17T22:31:29.962Z,7.07
2022-08-17T22:34:00.490Z,6.18
2022-08-17T22:36:33.832Z,11.27
2022-08-17T22:39:10.373Z,7.93
2022-08-17T22:41:50.813Z,7.55
2022-08-17T22:44:27.680Z,7.22
2022-08-17T22:47:21.564Z,6.30
2022-08-17T22:49:58.372Z,8.70
2022-08-17T22:53:01.600Z,6.85
2022-08-17T22:55:50.394Z,6.28
2022-08-17T22:58:43.850Z,11.15
2022-08-17T23:01:33.563Z,7.15
2022-08-17T23:04:31.666Z,13.02
2022-08-17T23:06:59.560Z,5.82
2022-08-17T23:09:28.125Z,7.78
2022-08-17T23:11:59.888Z,4.10
2022-08-17T23:14:32.198Z,7.95
2022-08-17T23:17:01.074Z,8.38
2022-08-17T23:19:31.903Z,9.88
2022-08-17T23:22:04.482Z,14.38
2022-08-17T23:24:35.940Z,8.38
2022-08-17T23:27:07.981Z,6.57
2022-08-17T23:29:39.590Z,5.07
2022-08-17T23:32:10.124Z,6.97
2022-08-17T23:34:40.493Z,7.57
2022-08-17T23:37:09.964Z,6.15
2022-08-17T23:39:39.592Z,11.35
2022-08-17T23:42:11.048Z,9.25
2022-08-17T23:44:40.149Z,19.40
2022-08-17T23:47:09.135Z,8.25
2022-08-17T23:49:37.547Z,4.55
2022-08-17T23:52:10.159Z,6.10
2022-08-17T23:54:43.944Z,5.05
2022-08-17T23:57:14.979Z,17.00
2022-08-17T23:59:44.174Z,8.70
